sensor_id;sensor_type;location;lat;lon;timestamp;P1;durP1;ratioP1;P2;durP2;ratioP2
51949;SDS011;37974;53.218;6.640;2023-04-15T00:00:04;15.77;;;6.15;;
51949;SDS011;37974;53.218;6.640;2023-04-15T00:02:31;14.93;;;6.50;;
51949;SDS011;37974;53.218;6.640;2023-04-15T00:04:56;15.02;;;6.28;;
51949;SDS011;37974;53.218;6.640;2023-04-15T00:07:22;15.68;;;6.45;;
51949;SDS011;37974;53.218;6.640;2023-04-15T00:09:48;15.20;;;7.18;;
51949;SDS011;37974;53.218;6.640;2023-04-15T00:12:14;14.63;;;7.53;;
51949;SDS011;37974;53.218;6.640;2023-04-15T00:14:39;15.07;;;7.50;;
51949;SDS011;37974;53.218;6.640;2023-04-15T00:17:05;14.02;;;6.88;;
51949;SDS011;37974;53.218;6.640;2023-04-15T00:19:31;16.83;;;8.50;;
51949;SDS011;37974;53.218;6.640;2023-04-15T00:21:57;15.10;;;7.68;;
51949;SDS011;37974;53.218;6.640;2023-04-15T00:24:23;15.00;;;7.50;;
51949;SDS011;37974;53.218;6.640;2023-04-15T00:26:49;15.63;;;8.25;;
51949;SDS011;37974;53.218;6.640;2023-04-15T00:29:14;16.58;;;7.97;;
51949;SDS011;37974;53.218;6.640;2023-04-15T00:31:40;11.82;;;7.00;;
51949;SDS011;37974;53.218;6.640;2023-04-15T00:34:06;15.55;;;8.80;;
51949;SDS011;37974;53.218;6.640;2023-04-15T00:36:32;18.13;;;8.20;;
51949;SDS011;37974;53.218;6.640;2023-04-15T00:38:59;14.65;;;8.23;;
51949;SDS011;37974;53.218;6.640;2023-04-15T00:41:25;16.92;;;7.80;;
51949;SDS011;37974;53.218;6.640;2023-04-15T00:43:50;14.38;;;7.78;;
51949;SDS011;37974;53.218;6.640;2023-04-15T00:46:16;13.57;;;8.18;;
51949;SDS011;37974;53.218;6.640;2023-04-15T00:48:44;14.77;;;9.32;;
51949;SDS011;37974;53.218;6.640;2023-04-15T00:51:11;14.70;;;8.60;;
51949;SDS011;37974;53.218;6.640;2023-04-15T00:53:38;18.85;;;9.60;;
51949;SDS011;37974;53.218;6.640;2023-04-15T00:56:04;15.90;;;9.43;;
51949;SDS011;37974;53.218;6.640;2023-04-15T00:58:30;14.45;;;9.07;;
51949;SDS011;37974;53.218;6.640;2023-04-15T01:00:56;16.35;;;8.98;;
51949;SDS011;37974;53.218;6.640;2023-04-15T01:03:23;14.75;;;8.73;;
51949;SDS011;37974;53.218;6.640;2023-04-15T01:05:49;15.20;;;9.00;;
51949;SDS011;37974;53.218;6.640;2023-04-15T01:08:22;14.57;;;8.55;;
51949;SDS011;37974;53.218;6.640;2023-04-15T01:10:53;13.85;;;9.20;;
51949;SDS011;37974;53.218;6.640;2023-04-15T01:13:21;14.98;;;9.88;;
51949;SDS011;37974;53.218;6.640;2023-04-15T01:15:48;14.68;;;9.07;;
51949;SDS011;37974;53.218;6.640;2023-04-15T01:18:14;15.45;;;9.38;;
51949;SDS011;37974;53.218;6.640;2023-04-15T01:20:40;15.95;;;8.85;;
51949;SDS011;37974;53.218;6.640;2023-04-15T01:23:06;21.25;;;9.80;;
51949;SDS011;37974;53.218;6.640;2023-04-15T01:25:33;16.35;;;9.00;;
51949;SDS011;37974;53.218;6.640;2023-04-15T01:27:59;14.38;;;9.07;;
51949;SDS011;37974;53.218;6.640;2023-04-15T01:30:26;14.82;;;9.65;;
51949;SDS011;37974;53.218;6.640;2023-04-15T01:32:52;16.63;;;9.77;;
51949;SDS011;37974;53.218;6.640;2023-04-15T01:35:18;15.30;;;9.45;;
51949;SDS011;37974;53.218;6.640;2023-04-15T01:37:45;14.52;;;9.85;;
51949;SDS011;37974;53.218;6.640;2023-04-15T01:40:11;16.02;;;9.75;;
51949;SDS011;37974;53.218;6.640;2023-04-15T01:42:38;15.65;;;9.20;;
51949;SDS011;37974;53.218;6.640;2023-04-15T01:45:04;17.05;;;10.10;;
51949;SDS011;37974;53.218;6.640;2023-04-15T01:47:31;15.35;;;9.30;;
51949;SDS011;37974;53.218;6.640;2023-04-15T01:49:57;14.45;;;8.88;;
51949;SDS011;37974;53.218;6.640;2023-04-15T01:52:23;14.98;;;9.63;;
51949;SDS011;37974;53.218;6.640;2023-04-15T01:54:50;13.40;;;9.13;;
51949;SDS011;37974;53.218;6.640;2023-04-15T01:57:16;14.52;;;9.77;;
51949;SDS011;37974;53.218;6.640;2023-04-15T01:59:43;16.92;;;10.27;;
51949;SDS011;37974;53.218;6.640;2023-04-15T02:02:08;16.35;;;9.73;;
51949;SDS011;37974;53.218;6.640;2023-04-15T02:04:34;20.33;;;11.25;;
51949;SDS011;37974;53.218;6.640;2023-04-15T02:07:00;17.15;;;10.50;;
51949;SDS011;37974;53.218;6.640;2023-04-15T02:09:25;16.88;;;10.40;;
51949;SDS011;37974;53.218;6.640;2023-04-15T02:11:51;16.95;;;10.40;;
51949;SDS011;37974;53.218;6.640;2023-04-15T02:14:18;15.90;;;11.07;;
51949;SDS011;37974;53.218;6.640;2023-04-15T02:16:44;18.45;;;10.77;;
51949;SDS011;37974;53.218;6.640;2023-04-15T02:19:09;18.38;;;10.82;;
51949;SDS011;37974;53.218;6.640;2023-04-15T02:21:35;16.80;;;11.20;;
51949;SDS011;37974;53.218;6.640;2023-04-15T02:24:01;18.83;;;12.40;;
51949;SDS011;37974;53.218;6.640;2023-04-15T02:26:27;17.08;;;11.60;;
51949;SDS011;37974;53.218;6.640;2023-04-15T02:28:56;19.25;;;11.90;;
51949;SDS011;37974;53.218;6.640;2023-04-15T02:31:21;20.13;;;12.85;;
51949;SDS011;37974;53.218;6.640;2023-04-15T02:33:47;25.30;;;13.80;;
51949;SDS011;37974;53.218;6.640;2023-04-15T02:36:13;20.30;;;12.52;;
51949;SDS011;37974;53.218;6.640;2023-04-15T02:38:38;18.23;;;12.18;;
51949;SDS011;37974;53.218;6.640;2023-04-15T02:41:06;18.40;;;12.38;;
51949;SDS011;37974;53.218;6.640;2023-04-15T02:43:32;17.17;;;13.05;;
51949;SDS011;37974;53.218;6.640;2023-04-15T02:45:58;19.90;;;13.10;;
51949;SDS011;37974;53.218;6.640;2023-04-15T02:48:23;19.95;;;11.82;;
51949;SDS011;37974;53.218;6.640;2023-04-15T02:50:50;20.85;;;13.77;;
51949;SDS011;37974;53.218;6.640;2023-04-15T02:53:15;17.80;;;13.23;;
51949;SDS011;37974;53.218;6.640;2023-04-15T02:55:41;23.80;;;14.43;;
51949;SDS011;37974;53.218;6.640;2023-04-15T02:58:07;22.02;;;14.45;;
51949;SDS011;37974;53.218;6.640;2023-04-15T03:00:32;19.30;;;13.63;;
51949;SDS011;37974;53.218;6.640;2023-04-15T03:03:03;23.33;;;15.05;;
51949;SDS011;37974;53.218;6.640;2023-04-15T03:05:29;24.52;;;15.80;;
51949;SDS011;37974;53.218;6.640;2023-04-15T03:07:55;22.83;;;14.85;;
51949;SDS011;37974;53.218;6.640;2023-04-15T03:10:21;20.50;;;14.68;;
51949;SDS011;37974;53.218;6.640;2023-04-15T03:12:47;27.77;;;15.65;;
51949;SDS011;37974;53.218;6.640;2023-04-15T03:15:14;23.42;;;15.80;;
51949;SDS011;37974;53.218;6.640;2023-04-15T03:17:40;26.98;;;16.98;;
51949;SDS011;37974;53.218;6.640;2023-04-15T03:20:06;24.75;;;15.77;;
51949;SDS011;37974;53.218;6.640;2023-04-15T03:22:32;19.90;;;15.25;;
51949;SDS011;37974;53.218;6.640;2023-04-15T03:24:58;23.27;;;15.68;;
51949;SDS011;37974;53.218;6.640;2023-04-15T03:27:24;26.40;;;17.30;;
51949;SDS011;37974;53.218;6.640;2023-04-15T03:29:50;24.30;;;16.40;;
51949;SDS011;37974;53.218;6.640;2023-04-15T03:32:16;28.02;;;18.65;;
51949;SDS011;37974;53.218;6.640;2023-04-15T03:34:42;25.50;;;17.00;;
51949;SDS011;37974;53.218;6.640;2023-04-15T03:37:08;27.50;;;17.95;;
51949;SDS011;37974;53.218;6.640;2023-04-15T03:39:33;24.63;;;18.10;;
51949;SDS011;37974;53.218;6.640;2023-04-15T03:41:59;26.55;;;19.45;;
51949;SDS011;37974;53.218;6.640;2023-04-15T03:44:26;29.38;;;18.60;;
51949;SDS011;37974;53.218;6.640;2023-04-15T03:46:52;25.13;;;18.10;;
51949;SDS011;37974;53.218;6.640;2023-04-15T03:49:18;30.55;;;19.45;;
51949;SDS011;37974;53.218;6.640;2023-04-15T03:51:44;26.10;;;19.15;;
51949;SDS011;37974;53.218;6.640;2023-04-15T03:54:10;27.30;;;18.23;;
51949;SDS011;37974;53.218;6.640;2023-04-15T03:56:39;29.08;;;19.25;;
51949;SDS011;37974;53.218;6.640;2023-04-15T03:59:04;26.75;;;18.45;;
51949;SDS011;37974;53.218;6.640;2023-04-15T04:01:30;29.45;;;19.33;;
51949;SDS011;37974;53.218;6.640;2023-04-15T04:03:56;26.50;;;19.27;;
51949;SDS011;37974;53.218;6.640;2023-04-15T04:06:21;28.65;;;19.70;;
51949;SDS011;37974;53.218;6.640;2023-04-15T04:08:47;29.33;;;19.83;;
51949;SDS011;37974;53.218;6.640;2023-04-15T04:11:13;28.52;;;20.27;;
51949;SDS011;37974;53.218;6.640;2023-04-15T04:13:39;29.05;;;19.75;;
51949;SDS011;37974;53.218;6.640;2023-04-15T04:16:05;33.15;;;20.73;;
51949;SDS011;37974;53.218;6.640;2023-04-15T04:18:31;28.80;;;20.92;;
51949;SDS011;37974;53.218;6.640;2023-04-15T04:20:57;28.20;;;20.60;;
51949;SDS011;37974;53.218;6.640;2023-04-15T04:23:23;31.45;;;22.00;;
51949;SDS011;37974;53.218;6.640;2023-04-15T04:25:49;31.58;;;20.65;;
51949;SDS011;37974;53.218;6.640;2023-04-15T04:28:15;30.13;;;21.02;;
51949;SDS011;37974;53.218;6.640;2023-04-15T04:30:41;30.20;;;19.65;;
51949;SDS011;37974;53.218;6.640;2023-04-15T04:33:06;26.70;;;19.30;;
51949;SDS011;37974;53.218;6.640;2023-04-15T04:35:32;25.35;;;18.52;;
51949;SDS011;37974;53.218;6.640;2023-04-15T04:37:59;27.65;;;18.73;;
51949;SDS011;37974;53.218;6.640;2023-04-15T04:40:25;27.92;;;19.70;;
51949;SDS011;37974;53.218;6.640;2023-04-15T04:42:51;26.50;;;17.92;;
51949;SDS011;37974;53.218;6.640;2023-04-15T04:45:18;25.42;;;17.52;;
51949;SDS011;37974;53.218;6.640;2023-04-15T04:47:44;27.02;;;18.90;;
51949;SDS011;37974;53.218;6.640;2023-04-15T04:50:10;27.13;;;17.95;;
51949;SDS011;37974;53.218;6.640;2023-04-15T04:52:36;26.88;;;18.65;;
51949;SDS011;37974;53.218;6.640;2023-04-15T04:55:03;27.30;;;18.80;;
51949;SDS011;37974;53.218;6.640;2023-04-15T04:57:29;29.88;;;18.98;;
51949;SDS011;37974;53.218;6.640;2023-04-15T04:59:55;45.15;;;16.50;;
51949;SDS011;37974;53.218;6.640;2023-04-15T05:02:21;25.20;;;16.25;;
51949;SDS011;37974;53.218;6.640;2023-04-15T05:04:47;26.63;;;17.95;;
51949;SDS011;37974;53.218;6.640;2023-04-15T05:07:14;26.52;;;17.75;;
51949;SDS011;37974;53.218;6.640;2023-04-15T05:09:40;22.98;;;17.15;;
51949;SDS011;37974;53.218;6.640;2023-04-15T05:12:06;23.63;;;16.98;;
51949;SDS011;37974;53.218;6.640;2023-04-15T05:14:33;25.88;;;17.48;;
51949;SDS011;37974;53.218;6.640;2023-04-15T05:16:58;23.77;;;16.30;;
51949;SDS011;37974;53.218;6.640;2023-04-15T05:19:24;27.13;;;18.23;;
51949;SDS011;37974;53.218;6.640;2023-04-15T05:21:50;26.98;;;16.45;;
51949;SDS011;37974;53.218;6.640;2023-04-15T05:24:16;29.02;;;18.65;;
51949;SDS011;37974;53.218;6.640;2023-04-15T05:26:42;27.27;;;18.02;;
51949;SDS011;37974;53.218;6.640;2023-04-15T05:29:08;32.20;;;19.83;;
51949;SDS011;37974;53.218;6.640;2023-04-15T05:31:33;29.00;;;18.13;;
51949;SDS011;37974;53.218;6.640;2023-04-15T05:33:59;27.63;;;18.50;;
51949;SDS011;37974;53.218;6.640;2023-04-15T05:36:25;29.27;;;18.85;;
51949;SDS011;37974;53.218;6.640;2023-04-15T05:38:51;29.73;;;19.40;;
51949;SDS011;37974;53.218;6.640;2023-04-15T05:41:17;29.55;;;18.17;;
51949;SDS011;37974;53.218;6.640;2023-04-15T05:43:43;28.17;;;18.92;;
51949;SDS011;37974;53.218;6.640;2023-04-15T05:46:08;28.88;;;18.48;;
51949;SDS011;37974;53.218;6.640;2023-04-15T05:48:34;27.73;;;18.20;;
51949;SDS011;37974;53.218;6.640;2023-04-15T05:51:00;28.83;;;18.67;;
51949;SDS011;37974;53.218;6.640;2023-04-15T05:53:26;29.88;;;17.52;;
51949;SDS011;37974;53.218;6.640;2023-04-15T05:55:51;28.77;;;17.95;;
51949;SDS011;37974;53.218;6.640;2023-04-15T05:58:17;28.40;;;18.70;;
51949;SDS011;37974;53.218;6.640;2023-04-15T06:00:43;32.15;;;17.63;;
51949;SDS011;37974;53.218;6.640;2023-04-15T06:03:09;26.70;;;17.58;;
51949;SDS011;37974;53.218;6.640;2023-04-15T06:05:35;26.92;;;17.42;;
51949;SDS011;37974;53.218;6.640;2023-04-15T06:08:01;31.30;;;16.40;;
51949;SDS011;37974;53.218;6.640;2023-04-15T06:10:27;22.02;;;15.75;;
51949;SDS011;37974;53.218;6.640;2023-04-15T06:12:53;23.80;;;15.57;;
51949;SDS011;37974;53.218;6.640;2023-04-15T06:15:18;27.15;;;16.17;;
51949;SDS011;37974;53.218;6.640;2023-04-15T06:17:44;26.95;;;15.20;;
51949;SDS011;37974;53.218;6.640;2023-04-15T06:20:10;23.45;;;15.57;;
51949;SDS011;37974;53.218;6.640;2023-04-15T06:22:36;23.42;;;14.55;;
51949;SDS011;37974;53.218;6.640;2023-04-15T06:25:03;24.67;;;15.00;;
51949;SDS011;37974;53.218;6.640;2023-04-15T06:27:29;23.80;;;15.00;;
51949;SDS011;37974;53.218;6.640;2023-04-15T06:29:55;25.33;;;14.98;;
51949;SDS011;37974;53.218;6.640;2023-04-15T06:32:21;23.45;;;14.30;;
51949;SDS011;37974;53.218;6.640;2023-04-15T06:34:46;24.50;;;14.82;;
51949;SDS011;37974;53.218;6.640;2023-04-15T06:37:12;27.15;;;13.57;;
51949;SDS011;37974;53.218;6.640;2023-04-15T06:39:40;21.10;;;13.63;;
51949;SDS011;37974;53.218;6.640;2023-04-15T06:42:07;25.65;;;14.73;;
51949;SDS011;37974;53.218;6.640;2023-04-15T06:44:33;26.98;;;14.30;;
51949;SDS011;37974;53.218;6.640;2023-04-15T06:47:00;21.83;;;13.73;;
51949;SDS011;37974;53.218;6.640;2023-04-15T06:49:26;24.05;;;12.93;;
51949;SDS011;37974;53.218;6.640;2023-04-15T06:51:52;22.77;;;13.18;;
51949;SDS011;37974;53.218;6.640;2023-04-15T06:54:17;18.17;;;12.82;;
51949;SDS011;37974;53.218;6.640;2023-04-15T06:56:43;19.60;;;12.80;;
51949;SDS011;37974;53.218;6.640;2023-04-15T06:59:09;17.90;;;12.15;;
51949;SDS011;37974;53.218;6.640;2023-04-15T07:01:34;20.08;;;12.70;;
51949;SDS011;37974;53.218;6.640;2023-04-15T07:04:00;18.65;;;11.93;;
51949;SDS011;37974;53.218;6.640;2023-04-15T07:06:26;23.60;;;17.08;;
51949;SDS011;37974;53.218;6.640;2023-04-15T07:08:52;17.45;;;11.27;;
51949;SDS011;37974;53.218;6.640;2023-04-15T07:11:18;20.27;;;10.90;;
51949;SDS011;37974;53.218;6.640;2023-04-15T07:13:45;21.95;;;10.65;;
51949;SDS011;37974;53.218;6.640;2023-04-15T07:16:11;20.38;;;10.55;;
51949;SDS011;37974;53.218;6.640;2023-04-15T07:18:36;19.52;;;10.43;;
51949;SDS011;37974;53.218;6.640;2023-04-15T07:21:02;16.55;;;10.43;;
51949;SDS011;37974;53.218;6.640;2023-04-15T07:23:28;12.63;;;8.63;;
51949;SDS011;37974;53.218;6.640;2023-04-15T07:25:54;18.60;;;9.15;;
51949;SDS011;37974;53.218;6.640;2023-04-15T07:28:21;13.65;;;9.18;;
51949;SDS011;37974;53.218;6.640;2023-04-15T07:30:47;14.52;;;9.30;;
51949;SDS011;37974;53.218;6.640;2023-04-15T07:33:13;15.27;;;9.02;;
51949;SDS011;37974;53.218;6.640;2023-04-15T07:35:38;12.15;;;8.40;;
51949;SDS011;37974;53.218;6.640;2023-04-15T07:38:04;16.60;;;9.02;;
51949;SDS011;37974;53.218;6.640;2023-04-15T07:40:31;13.32;;;8.00;;
51949;SDS011;37974;53.218;6.640;2023-04-15T07:43:00;12.93;;;7.93;;
51949;SDS011;37974;53.218;6.640;2023-04-15T07:45:26;14.73;;;8.40;;
51949;SDS011;37974;53.218;6.640;2023-04-15T07:47:51;14.50;;;8.23;;
51949;SDS011;37974;53.218;6.640;2023-04-15T07:50:17;14.93;;;8.30;;
51949;SDS011;37974;53.218;6.640;2023-04-15T07:52:43;13.95;;;7.68;;
51949;SDS011;37974;53.218;6.640;2023-04-15T07:55:09;17.23;;;8.00;;
51949;SDS011;37974;53.218;6.640;2023-04-15T07:57:36;13.15;;;7.68;;
51949;SDS011;37974;53.218;6.640;2023-04-15T08:00:02;14.15;;;8.48;;
51949;SDS011;37974;53.218;6.640;2023-04-15T08:02:31;14.70;;;8.35;;
51949;SDS011;37974;53.218;6.640;2023-04-15T08:04:57;21.02;;;8.55;;
51949;SDS011;37974;53.218;6.640;2023-04-15T08:07:23;14.13;;;7.93;;
51949;SDS011;37974;53.218;6.640;2023-04-15T08:09:50;15.05;;;7.68;;
51949;SDS011;37974;53.218;6.640;2023-04-15T08:12:16;15.45;;;8.18;;
51949;SDS011;37974;53.218;6.640;2023-04-15T08:14:42;12.77;;;7.38;;
51949;SDS011;37974;53.218;6.640;2023-04-15T08:17:07;13.40;;;6.63;;
51949;SDS011;37974;53.218;6.640;2023-04-15T08:19:33;13.00;;;7.25;;
51949;SDS011;37974;53.218;6.640;2023-04-15T08:21:59;15.30;;;7.05;;
51949;SDS011;37974;53.218;6.640;2023-04-15T08:24:25;11.50;;;6.50;;
51949;SDS011;37974;53.218;6.640;2023-04-15T08:26:51;12.32;;;5.78;;
51949;SDS011;37974;53.218;6.640;2023-04-15T08:29:17;10.60;;;5.82;;
51949;SDS011;37974;53.218;6.640;2023-04-15T08:31:43;11.50;;;5.40;;
51949;SDS011;37974;53.218;6.640;2023-04-15T08:34:10;9.30;;;5.00;;
51949;SDS011;37974;53.218;6.640;2023-04-15T08:36:37;10.75;;;4.28;;
51949;SDS011;37974;53.218;6.640;2023-04-15T08:39:03;9.88;;;4.55;;
51949;SDS011;37974;53.218;6.640;2023-04-15T08:41:31;12.35;;;4.35;;
51949;SDS011;37974;53.218;6.640;2023-04-15T08:44:04;12.60;;;3.83;;
51949;SDS011;37974;53.218;6.640;2023-04-15T08:46:31;12.60;;;3.75;;
51949;SDS011;37974;53.218;6.640;2023-04-15T08:48:59;10.75;;;3.65;;
51949;SDS011;37974;53.218;6.640;2023-04-15T08:51:27;7.35;;;3.10;;
51949;SDS011;37974;53.218;6.640;2023-04-15T08:53:53;6.80;;;2.80;;
51949;SDS011;37974;53.218;6.640;2023-04-15T08:56:19;7.68;;;2.90;;
51949;SDS011;37974;53.218;6.640;2023-04-15T08:58:49;6.10;;;2.97;;
51949;SDS011;37974;53.218;6.640;2023-04-15T09:01:15;5.30;;;2.40;;
51949;SDS011;37974;53.218;6.640;2023-04-15T09:03:41;8.20;;;2.50;;
51949;SDS011;37974;53.218;6.640;2023-04-15T09:06:07;7.50;;;2.83;;
51949;SDS011;37974;53.218;6.640;2023-04-15T09:08:33;6.63;;;2.17;;
51949;SDS011;37974;53.218;6.640;2023-04-15T09:11:00;6.80;;;1.95;;
51949;SDS011;37974;53.218;6.640;2023-04-15T09:13:27;9.38;;;2.50;;
51949;SDS011;37974;53.218;6.640;2023-04-15T09:15:53;6.47;;;2.25;;
51949;SDS011;37974;53.218;6.640;2023-04-15T09:18:29;7.93;;;2.05;;
51949;SDS011;37974;53.218;6.640;2023-04-15T09:21:02;8.43;;;2.17;;
51949;SDS011;37974;53.218;6.640;2023-04-15T09:23:30;4.55;;;2.00;;
51949;SDS011;37974;53.218;6.640;2023-04-15T09:25:56;2.65;;;1.65;;
51949;SDS011;37974;53.218;6.640;2023-04-15T09:28:23;6.60;;;1.85;;
51949;SDS011;37974;53.218;6.640;2023-04-15T09:30:51;2.78;;;1.42;;
51949;SDS011;37974;53.218;6.640;2023-04-15T09:33:22;3.42;;;1.58;;
51949;SDS011;37974;53.218;6.640;2023-04-15T09:35:58;3.85;;;1.70;;
51949;SDS011;37974;53.218;6.640;2023-04-15T09:38:25;4.65;;;2.38;;
51949;SDS011;37974;53.218;6.640;2023-04-15T09:40:51;4.55;;;2.20;;
51949;SDS011;37974;53.218;6.640;2023-04-15T09:43:17;4.50;;;1.77;;
51949;SDS011;37974;53.218;6.640;2023-04-15T09:45:47;5.90;;;2.05;;
51949;SDS011;37974;53.218;6.640;2023-04-15T09:48:15;5.30;;;1.95;;
51949;SDS011;37974;53.218;6.640;2023-04-15T09:50:51;6.28;;;1.80;;
51949;SDS011;37974;53.218;6.640;2023-04-15T09:53:19;4.45;;;1.83;;
51949;SDS011;37974;53.218;6.640;2023-04-15T09:55:51;3.22;;;1.40;;
51949;SDS011;37974;53.218;6.640;2023-04-15T09:58:22;5.43;;;1.92;;
51949;SDS011;37974;53.218;6.640;2023-04-15T10:00:51;5.80;;;1.73;;
51949;SDS011;37974;53.218;6.640;2023-04-15T10:03:19;3.97;;;1.45;;
51949;SDS011;37974;53.218;6.640;2023-04-15T10:05:46;4.55;;;1.30;;
51949;SDS011;37974;53.218;6.640;2023-04-15T10:08:17;5.80;;;1.50;;
51949;SDS011;37974;53.218;6.640;2023-04-15T10:10:44;5.28;;;1.30;;
51949;SDS011;37974;53.218;6.640;2023-04-15T10:13:11;6.25;;;1.83;;
51949;SDS011;37974;53.218;6.640;2023-04-15T10:15:42;7.18;;;1.60;;
51949;SDS011;37974;53.218;6.640;2023-04-15T10:18:15;4.95;;;1.42;;
51949;SDS011;37974;53.218;6.640;2023-04-15T10:20:43;4.45;;;1.60;;
51949;SDS011;37974;53.218;6.640;2023-04-15T10:23:10;4.80;;;1.77;;
51949;SDS011;37974;53.218;6.640;2023-04-15T10:25:36;5.13;;;1.90;;
51949;SDS011;37974;53.218;6.640;2023-04-15T10:28:03;13.48;;;2.50;;
51949;SDS011;37974;53.218;6.640;2023-04-15T10:30:32;7.13;;;2.10;;
51949;SDS011;37974;53.218;6.640;2023-04-15T10:32:58;7.53;;;1.88;;
51949;SDS011;37974;53.218;6.640;2023-04-15T10:35:26;5.68;;;2.00;;
51949;SDS011;37974;53.218;6.640;2023-04-15T10:37:54;6.60;;;1.90;;
51949;SDS011;37974;53.218;6.640;2023-04-15T10:42:56;10.52;;;1.98;;
51949;SDS011;37974;53.218;6.640;2023-04-15T10:45:24;7.30;;;2.22;;
51949;SDS011;37974;53.218;6.640;2023-04-15T10:47:55;6.45;;;2.30;;
51949;SDS011;37974;53.218;6.640;2023-04-15T10:50:21;11.43;;;2.15;;
51949;SDS011;37974;53.218;6.640;2023-04-15T10:52:49;10.05;;;1.95;;
51949;SDS011;37974;53.218;6.640;2023-04-15T10:55:18;18.40;;;3.47;;
51949;SDS011;37974;53.218;6.640;2023-04-15T10:57:46;7.47;;;1.83;;
51949;SDS011;37974;53.218;6.640;2023-04-15T11:00:15;10.07;;;2.50;;
51949;SDS011;37974;53.218;6.640;2023-04-15T11:02:45;8.73;;;2.95;;
51949;SDS011;37974;53.218;6.640;2023-04-15T11:05:17;9.45;;;2.90;;
51949;SDS011;37974;53.218;6.640;2023-04-15T11:07:49;5.75;;;2.13;;
51949;SDS011;37974;53.218;6.640;2023-04-15T11:12:45;8.75;;;2.22;;
51949;SDS011;37974;53.218;6.640;2023-04-15T11:15:42;12.23;;;2.75;;
51949;SDS011;37974;53.218;6.640;2023-04-15T11:18:10;13.68;;;2.38;;
51949;SDS011;37974;53.218;6.640;2023-04-15T11:20:39;9.27;;;2.45;;
51949;SDS011;37974;53.218;6.640;2023-04-15T11:23:07;10.93;;;2.30;;
51949;SDS011;37974;53.218;6.640;2023-04-15T11:25:33;6.78;;;1.63;;
51949;SDS011;37974;53.218;6.640;2023-04-15T11:28:02;10.93;;;2.17;;
51949;SDS011;37974;53.218;6.640;2023-04-15T11:30:29;9.55;;;1.98;;
51949;SDS011;37974;53.218;6.640;2023-04-15T11:32:57;9.93;;;1.90;;
51949;SDS011;37974;53.218;6.640;2023-04-15T11:35:24;14.95;;;2.30;;
51949;SDS011;37974;53.218;6.640;2023-04-15T11:37:50;12.15;;;2.13;;
51949;SDS011;37974;53.218;6.640;2023-04-15T11:40:16;15.02;;;2.55;;
51949;SDS011;37974;53.218;6.640;2023-04-15T11:42:53;18.05;;;2.63;;
51949;SDS011;37974;53.218;6.640;2023-04-15T11:45:29;11.77;;;2.22;;
51949;SDS011;37974;53.218;6.640;2023-04-15T11:48:03;11.55;;;2.38;;
51949;SDS011;37974;53.218;6.640;2023-04-15T11:50:31;15.57;;;2.75;;
51949;SDS011;37974;53.218;6.640;2023-04-15T11:52:59;15.65;;;2.47;;
51949;SDS011;37974;53.218;6.640;2023-04-15T11:55:27;13.48;;;2.63;;
51949;SDS011;37974;53.218;6.640;2023-04-15T12:00:47;15.20;;;3.38;;
51949;SDS011;37974;53.218;6.640;2023-04-15T12:06:03;11.75;;;2.25;;
51949;SDS011;37974;53.218;6.640;2023-04-15T12:08:47;17.85;;;2.22;;
51949;SDS011;37974;53.218;6.640;2023-04-15T12:11:20;13.27;;;2.08;;
51949;SDS011;37974;53.218;6.640;2023-04-15T12:13:55;10.85;;;1.88;;
51949;SDS011;37974;53.218;6.640;2023-04-15T12:16:23;9.60;;;2.58;;
51949;SDS011;37974;53.218;6.640;2023-04-15T12:18:50;13.60;;;2.67;;
51949;SDS011;37974;53.218;6.640;2023-04-15T12:21:18;10.75;;;2.47;;
51949;SDS011;37974;53.218;6.640;2023-04-15T12:23:48;15.20;;;2.05;;
51949;SDS011;37974;53.218;6.640;2023-04-15T12:26:17;16.30;;;3.57;;
51949;SDS011;37974;53.218;6.640;2023-04-15T12:28:52;12.07;;;2.30;;
51949;SDS011;37974;53.218;6.640;2023-04-15T12:31:20;11.35;;;1.83;;
51949;SDS011;37974;53.218;6.640;2023-04-15T12:33:47;7.80;;;1.80;;
51949;SDS011;37974;53.218;6.640;2023-04-15T12:36:13;15.35;;;2.17;;
51949;SDS011;37974;53.218;6.640;2023-04-15T12:38:39;13.68;;;2.85;;
51949;SDS011;37974;53.218;6.640;2023-04-15T12:41:05;13.25;;;2.28;;
51949;SDS011;37974;53.218;6.640;2023-04-15T12:43:31;11.40;;;1.95;;
51949;SDS011;37974;53.218;6.640;2023-04-15T12:45:56;12.43;;;1.88;;
51949;SDS011;37974;53.218;6.640;2023-04-15T12:48:22;10.73;;;1.85;;
51949;SDS011;37974;53.218;6.640;2023-04-15T12:50:48;14.23;;;2.63;;
51949;SDS011;37974;53.218;6.640;2023-04-15T12:53:13;12.73;;;1.90;;
51949;SDS011;37974;53.218;6.640;2023-04-15T12:55:39;9.60;;;2.00;;
51949;SDS011;37974;53.218;6.640;2023-04-15T12:58:05;12.85;;;2.13;;
51949;SDS011;37974;53.218;6.640;2023-04-15T13:00:32;14.45;;;2.00;;
51949;SDS011;37974;53.218;6.640;2023-04-15T13:02:59;15.65;;;2.72;;
51949;SDS011;37974;53.218;6.640;2023-04-15T13:05:24;11.43;;;2.20;;
51949;SDS011;37974;53.218;6.640;2023-04-15T13:07:50;14.50;;;2.17;;
51949;SDS011;37974;53.218;6.640;2023-04-15T13:10:16;13.35;;;2.20;;
51949;SDS011;37974;53.218;6.640;2023-04-15T13:12:42;18.48;;;3.55;;
51949;SDS011;37974;53.218;6.640;2023-04-15T13:15:07;18.20;;;2.50;;
51949;SDS011;37974;53.218;6.640;2023-04-15T13:17:36;12.30;;;2.28;;
51949;SDS011;37974;53.218;6.640;2023-04-15T13:20:02;16.77;;;2.22;;
51949;SDS011;37974;53.218;6.640;2023-04-15T13:22:28;17.48;;;2.70;;
51949;SDS011;37974;53.218;6.640;2023-04-15T13:24:54;9.75;;;2.05;;
51949;SDS011;37974;53.218;6.640;2023-04-15T13:27:20;16.00;;;2.17;;
51949;SDS011;37974;53.218;6.640;2023-04-15T13:29:46;10.82;;;2.05;;
51949;SDS011;37974;53.218;6.640;2023-04-15T13:32:12;18.70;;;4.40;;
51949;SDS011;37974;53.218;6.640;2023-04-15T13:34:38;9.70;;;2.20;;
51949;SDS011;37974;53.218;6.640;2023-04-15T13:37:05;13.27;;;2.03;;
51949;SDS011;37974;53.218;6.640;2023-04-15T13:39:32;12.75;;;2.35;;
51949;SDS011;37974;53.218;6.640;2023-04-15T13:41:57;12.48;;;2.13;;
51949;SDS011;37974;53.218;6.640;2023-04-15T13:44:23;13.88;;;1.60;;
51949;SDS011;37974;53.218;6.640;2023-04-15T13:46:49;13.88;;;2.40;;
51949;SDS011;37974;53.218;6.640;2023-04-15T13:49:15;12.63;;;3.08;;
51949;SDS011;37974;53.218;6.640;2023-04-15T13:51:41;13.25;;;2.33;;
51949;SDS011;37974;53.218;6.640;2023-04-15T13:54:07;10.93;;;2.05;;
51949;SDS011;37974;53.218;6.640;2023-04-15T13:56:32;15.00;;;1.80;;
51949;SDS011;37974;53.218;6.640;2023-04-15T13:58:58;11.70;;;2.28;;
51949;SDS011;37974;53.218;6.640;2023-04-15T14:01:26;16.83;;;1.85;;
51949;SDS011;37974;53.218;6.640;2023-04-15T14:03:52;12.15;;;2.13;;
51949;SDS011;37974;53.218;6.640;2023-04-15T14:06:18;14.98;;;2.50;;
51949;SDS011;37974;53.218;6.640;2023-04-15T14:08:44;16.50;;;2.80;;
51949;SDS011;37974;53.218;6.640;2023-04-15T14:11:10;12.48;;;2.35;;
51949;SDS011;37974;53.218;6.640;2023-04-15T14:13:36;10.10;;;2.65;;
51949;SDS011;37974;53.218;6.640;2023-04-15T14:16:01;11.27;;;2.28;;
51949;SDS011;37974;53.218;6.640;2023-04-15T14:18:27;13.93;;;2.78;;
51949;SDS011;37974;53.218;6.640;2023-04-15T14:20:54;15.75;;;2.35;;
51949;SDS011;37974;53.218;6.640;2023-04-15T14:23:20;17.17;;;2.63;;
51949;SDS011;37974;53.218;6.640;2023-04-15T14:25:46;14.70;;;2.20;;
51949;SDS011;37974;53.218;6.640;2023-04-15T14:28:12;11.35;;;2.13;;
51949;SDS011;37974;53.218;6.640;2023-04-15T14:30:38;14.93;;;1.98;;
51949;SDS011;37974;53.218;6.640;2023-04-15T14:33:04;9.55;;;2.72;;
51949;SDS011;37974;53.218;6.640;2023-04-15T14:35:31;11.77;;;2.50;;
51949;SDS011;37974;53.218;6.640;2023-04-15T14:37:57;12.57;;;2.50;;